Time;durP1;ratioP1;P1;durP2;ratioP2;P2;SDS_P1;SDS_P2;PMS_P1;PMS_P2;Temp;Humidity;BMP_temperature;BMP_pressure;BME280_temperature;BME280_humidity;BME280_pressure;Samples;Min_cycle;Max_cycle;Signal;HPM_P1;HPM_P2
2022/02/03 00:00:41;;;;;;;11.77;1.58;;;;;;;;;;5062227;28;20127;-47
2022/02/03 00:08:58;;;;;;;9.07;1.80;;;;;;;;;;5072463;28;20028;-46
2022/02/03 00:11:22;;;;;;;8.65;2.05;;;;;;;;;;5060765;28;20041;-49
2022/02/03 00:24:56;;;;;;;12.85;2.45;;;;;;;;;;5062557;28;20037;-47
2022/02/03 00:27:39;;;;;;;10.18;2.47;;;;;;;;;;5063002;28;20043;-46
2022/02/03 00:30:12;;;;;;;9.70;1.92;;;;;;;;;;5070753;28;20037;-47
2022/02/03 00:48:53;;;;;;;10.27;2.08;;;;;;;;;;5069645;28;20040;-49
2022/02/03 00:51:19;;;;;;;;;;;;;;;;;;5065958;28;20037;-49
2022/02/03 00:53:46;;;;;;;12.23;2.15;;;;;;;;;;5062622;28;20303;-49
2022/02/03 00:56:14;;;;;;;8.63;1.45;;;;;;;;;;5069824;28;20031;-48
2022/02/03 00:58:46;;;;;;;5.28;1.45;;;;;;;;;;5069193;28;20028;-49
2022/02/03 01:01:15;;;;;;;3.03;1.35;;;;;;;;;;5065301;28;20073;-48
2022/02/03 01:03:42;;;;;;;5.75;1.20;;;;;;;;;;5077936;28;20463;-50
2022/02/03 01:06:13;;;;;;;6.03;1.58;;;;;;;;;;5070072;28;20021;-46
2022/02/03 01:08:42;;;;;;;8.50;1.58;;;;;;;;;;5065027;28;20032;-47
2022/02/03 01:11:16;;;;;;;9.15;1.92;;;;;;;;;;5066460;28;20106;-50
2022/02/03 01:13:58;;;;;;;7.38;1.85;;;;;;;;;;5070854;28;20416;-46
2022/02/03 01:16:45;;;;;;;6.93;1.50;;;;;;;;;;5065740;28;20541;-47
2022/02/03 01:19:45;;;;;;;7.60;1.23;;;;;;;;;;5059733;28;20033;-50
2022/02/03 01:44:30;;;;;;;9.27;1.70;;;;;;;;;;5032351;28;20057;-47
2022/02/03 01:47:04;;;;;;;14.65;2.03;;;;;;;;;;5027269;28;20036;-48
2022/02/03 01:52:24;;;;;;;10.57;2.55;;;;;;;;;;5064414;28;20056;-46
2022/02/03 01:54:53;;;;;;;6.47;1.80;;;;;;;;;;5057735;28;20025;-46
2022/02/03 01:57:21;;;;;;;8.80;2.38;;;;;;;;;;5072767;28;20028;-48
2022/02/03 01:59:50;;;;;;;11.00;1.55;;;;;;;;;;5072142;28;20025;-47
2022/02/03 02:02:16;;;;;;;6.68;2.22;;;;;;;;;;5061644;28;20105;-45
2022/02/03 02:04:45;;;;;;;9.95;1.80;;;;;;;;;;5074801;28;20111;-50
2022/02/03 02:07:19;;;;;;;10.50;1.60;;;;;;;;;;5057565;28;22014;-47
2022/02/03 02:10:05;;;;;;;9.82;1.67;;;;;;;;;;5060489;28;20049;-46
2022/02/03 02:12:58;;;;;;;9.93;1.38;;;;;;;;;;5062290;28;20029;-49
2022/02/03 02:37:53;;;;;;;8.52;2.58;;;;;;;;;;5067276;28;20043;-47
2022/02/03 02:40:45;;;;;;;11.13;2.33;;;;;;;;;;5067616;28;20040;-48
2022/02/03 02:43:18;;;;;;;10.55;2.38;;;;;;;;;;5062651;28;20036;-46
2022/02/03 02:45:59;;;;;;;7.57;1.58;;;;;;;;;;5068264;28;20032;-46
2022/02/03 02:48:32;;;;;;;14.32;1.60;;;;;;;;;;5071557;28;20029;-46
2022/02/03 02:51:07;;;;;;;14.90;2.90;;;;;;;;;;5058314;28;20029;-46
2022/02/03 02:54:06;;;;;;;6.18;2.17;;;;;;;;;;5072674;28;20170;-49
2022/02/03 03:00:26;;;;;;;7.80;1.40;;;;;;;;;;5070118;28;20067;-46
2022/02/03 03:32:52;;;;;;;11.35;2.45;;;;;;;;;;5080959;28;20038;-47
2022/02/03 03:35:34;;;;;;;6.32;1.48;;;;;;;;;;5062833;28;20028;-48
2022/02/03 03:38:01;;;;;;;4.18;1.38;;;;;;;;;;5070221;28;20107;-46
2022/02/03 03:40:32;;;;;;;6.40;1.80;;;;;;;;;;5070599;28;20025;-50
2022/02/03 03:43:05;;;;;;;10.43;2.10;;;;;;;;;;5068393;28;20112;-50
2022/02/03 03:45:32;;;;;;;13.88;1.85;;;;;;;;;;5060987;28;20477;-48
2022/02/03 03:48:01;;;;;;;4.18;1.70;;;;;;;;;;5066110;28;20029;-46
2022/02/03 03:50:29;;;;;;;13.30;2.05;;;;;;;;;;5072341;28;20013;-50
2022/02/03 03:53:03;;;;;;;4.28;1.30;;;;;;;;;;5068856;28;20048;-47
2022/02/03 03:55:57;;;;;;;7.68;1.60;;;;;;;;;;5062953;28;20088;-46
2022/02/03 04:33:26;;;;;;;5.95;2.08;;;;;;;;;;5040097;28;20044;-46
2022/02/03 04:37:13;;;;;;;11.55;2.17;;;;;;;;;;5060639;28;20033;-46
2022/02/03 04:53:30;;;;;;;10.40;1.60;;;;;;;;;;5062259;28;20060;-47
2022/02/03 04:59:14;;;;;;;11.40;2.55;;;;;;;;;;5071318;28;20058;-48
2022/02/03 05:02:02;;;;;;;6.75;1.83;;;;;;;;;;5070273;28;20048;-46
2022/02/03 05:07:43;;;;;;;9.55;2.35;;;;;;;;;;5075690;28;19912;-46
2022/02/03 05:10:17;;;;;;;15.13;2.22;;;;;;;;;;5067679;28;20041;-45
2022/02/03 05:13:14;;;;;;;11.15;1.60;;;;;;;;;;5067554;28;20484;-50
2022/02/03 05:16:22;;;;;;;3.60;1.38;;;;;;;;;;5071298;28;20078;-45
2022/02/03 05:42:55;;;;;;;9.73;1.83;;;;;;;;;;5062403;28;20035;-46
2022/02/03 05:45:53;;;;;;;5.20;1.85;;;;;;;;;;5071005;28;20036;-46
2022/02/03 05:54:45;;;;;;;7.90;1.65;;;;;;;;;;5070624;28;20106;-48
2022/02/03 06:05:14;;;;;;;5.80;1.98;;;;;;;;;;5072386;28;20441;-46
2022/02/03 06:13:17;;;;;;;11.32;2.28;;;;;;;;;;5069333;28;20082;-47
2022/02/03 06:16:02;;;;;;;;;;;;;;;;;;5071370;28;20031;-46
2022/02/03 06:21:27;;;;;;;12.30;2.30;;;;;;;;;;5066336;28;20691;-46
2022/02/03 06:23:59;;;;;;;6.70;1.73;;;;;;;;;;5074675;28;20034;-46
2022/02/03 06:29:16;;;;;;;6.97;1.40;;;;;;;;;;5067950;28;20507;-47
2022/02/03 06:31:43;;;;;;;11.07;1.60;;;;;;;;;;5070583;28;20040;-49
2022/02/03 06:34:09;;;;;;;6.53;2.17;;;;;;;;;;5074317;28;20108;-46
2022/02/03 06:36:37;;;;;;;7.28;1.90;;;;;;;;;;5074675;28;20116;-45
2022/02/03 06:39:03;;;;;;;8.05;1.95;;;;;;;;;;5065784;28;20024;-46
2022/02/03 06:41:29;;;;;;;7.03;1.38;;;;;;;;;;5070350;28;20036;-45
2022/02/03 06:43:55;;;;;;;18.73;2.00;;;;;;;;;;5068015;28;20037;-49
2022/02/03 06:46:24;;;;;;;5.03;1.63;;;;;;;;;;5070930;28;20371;-46
2022/02/03 06:48:56;;;;;;;3.65;1.60;;;;;;;;;;5071203;28;20029;-46
2022/02/03 06:51:31;;;;;;;7.20;1.90;;;;;;;;;;5067528;28;20091;-45
2022/02/03 06:54:03;;;;;;;7.78;1.90;;;;;;;;;;5073654;28;20718;-46
2022/02/03 06:56:37;;;;;;;13.03;3.33;;;;;;;;;;5070444;28;20413;-45
2022/02/03 06:59:08;;;;;;;9.77;2.42;;;;;;;;;;5073072;28;20020;-45
2022/02/03 07:01:41;;;;;;;6.22;2.13;;;;;;;;;;5071841;28;20024;-46
2022/02/03 07:04:17;;;;;;;7.30;1.80;;;;;;;;;;5070738;28;20396;-46
2022/02/03 07:06:44;;;;;;;13.95;1.90;;;;;;;;;;5066777;28;20036;-47
2022/02/03 07:09:10;;;;;;;12.00;2.53;;;;;;;;;;5075574;28;20459;-46
2022/02/03 07:11:38;;;;;;;7.97;2.00;;;;;;;;;;5073490;28;20056;-46
2022/02/03 07:14:06;;;;;;;6.75;2.35;;;;;;;;;;5072560;28;20508;-46
2022/02/03 07:16:43;;;;;;;10.98;1.85;;;;;;;;;;5059324;28;20021;-50
2022/02/03 07:19:09;;;;;;;7.65;1.83;;;;;;;;;;5071830;28;20036;-47
2022/02/03 07:21:35;;;;;;;8.32;1.63;;;;;;;;;;5060041;28;20021;-46
2022/02/03 07:24:01;;;;;;;6.82;2.35;;;;;;;;;;5060526;28;20029;-46
2022/02/03 07:26:27;;;;;;;6.72;1.70;;;;;;;;;;5065713;28;20110;-46
2022/02/03 07:28:53;;;;;;;7.90;1.88;;;;;;;;;;5072436;28;20027;-46
2022/02/03 07:31:19;;;;;;;6.10;2.13;;;;;;;;;;5068159;28;20028;-45
2022/02/03 07:33:45;;;;;;;10.18;2.00;;;;;;;;;;5066744;28;20020;-46
2022/02/03 07:36:11;;;;;;;7.63;1.63;;;;;;;;;;5065398;28;20035;-46
2022/02/03 07:38:39;;;;;;;12.55;2.42;;;;;;;;;;5062162;28;20154;-46
2022/02/03 07:41:05;;;;;;;8.43;2.05;;;;;;;;;;5058356;28;20024;-45
2022/02/03 07:43:31;;;;;;;14.93;2.40;;;;;;;;;;5071253;28;20039;-46
2022/02/03 07:45:58;;;;;;;7.53;2.13;;;;;;;;;;5069755;28;20028;-47
2022/02/03 07:48:24;;;;;;;8.68;2.20;;;;;;;;;;5059822;28;20051;-46
2022/02/03 07:50:50;;;;;;;9.75;1.60;;;;;;;;;;5064953;28;20424;-45
2022/02/03 07:53:16;;;;;;;10.88;1.50;;;;;;;;;;5066679;28;20046;-46
2022/02/03 07:55:42;;;;;;;9.27;1.60;;;;;;;;;;5064490;28;20074;-46
2022/02/03 07:58:08;;;;;;;10.75;2.08;;;;;;;;;;5068477;28;20404;-46
2022/02/03 08:00:34;;;;;;;4.68;1.60;;;;;;;;;;5059889;28;20064;-46
2022/02/03 08:03:05;;;;;;;8.75;2.30;;;;;;;;;;5070232;28;20029;-47
2022/02/03 08:05:31;;;;;;;4.90;1.58;;;;;;;;;;5059956;28;20053;-47
2022/02/03 08:08:06;;;;;;;6.55;1.90;;;;;;;;;;5059954;28;20354;-46
2022/02/03 08:10:40;;;;;;;7.95;2.10;;;;;;;;;;5067281;28;20036;-46
2022/02/03 08:13:09;;;;;;;9.90;2.47;;;;;;;;;;5067227;28;20040;-47
2022/02/03 08:15:38;;;;;;;8.18;2.40;;;;;;;;;;5064408;28;20044;-47
2022/02/03 08:18:08;;;;;;;10.73;2.17;;;;;;;;;;5068885;28;20488;-46
2022/02/03 08:20:34;;;;;;;14.43;2.00;;;;;;;;;;5059958;28;20056;-48
2022/02/03 08:25:53;;;;;;;7.22;2.30;;;;;;;;;;5070379;28;20040;-45
2022/02/03 08:28:35;;;;;;;12.55;2.13;;;;;;;;;;5058981;28;20037;-46
2022/02/03 08:31:05;;;;;;;12.88;2.15;;;;;;;;;;5061649;28;20532;-46
2022/02/03 08:33:31;;;;;;;11.18;2.05;;;;;;;;;;5069595;28;20052;-46
2022/02/03 08:35:59;;;;;;;9.23;2.30;;;;;;;;;;5072253;28;20039;-47
2022/02/03 08:38:47;;;;;;;9.73;2.17;;;;;;;;;;5066935;28;20483;-46
2022/02/03 08:41:11;;;;;;;11.63;2.95;;;;;;;;;;5070538;28;20082;-46
2022/02/03 08:43:38;;;;;;;12.10;2.13;;;;;;;;;;5066553;28;20115;-46
2022/02/03 08:46:06;;;;;;;10.43;2.03;;;;;;;;;;5070330;28;20024;-46
2022/02/03 08:48:32;;;;;;;6.97;2.28;;;;;;;;;;5058562;28;20039;-46
2022/02/03 08:50:59;;;;;;;12.82;3.60;;;;;;;;;;5065613;28;20029;-46
2022/02/03 08:53:45;;;;;;;9.88;2.30;;;;;;;;;;5070126;28;20368;-49
2022/02/03 08:56:26;;;;;;;14.20;2.72;;;;;;;;;;5067995;28;20388;-46
2022/02/03 09:37:12;;;;;;;9.25;2.47;;;;;;;;;;5069741;28;20028;-47
2022/02/03 09:51:31;;;;;;;9.85;2.33;;;;;;;;;;5063711;28;20385;-46
2022/02/03 09:56:26;;;;;;;10.18;2.72;;;;;;;;;;5071506;28;20046;-49
2022/02/03 09:59:04;;;;;;;11.63;2.63;;;;;;;;;;5077070;28;20029;-49
2022/02/03 10:01:35;;;;;;;8.60;2.25;;;;;;;;;;5073217;28;20114;-49
2022/02/03 10:04:18;;;;;;;9.15;2.75;;;;;;;;;;5083574;28;20036;-47
2022/02/03 10:06:56;;;;;;;8.68;2.83;;;;;;;;;;5072909;28;20029;-46
2022/02/03 10:09:35;;;;;;;10.07;2.58;;;;;;;;;;5065407;28;20016;-48
2022/02/03 10:12:01;;;;;;;8.10;2.83;;;;;;;;;;5064518;28;20025;-46
2022/02/03 10:14:34;;;;;;;9.02;2.72;;;;;;;;;;5066866;28;20421;-46
2022/02/03 10:17:00;;;;;;;9.02;2.65;;;;;;;;;;5062104;28;20039;-46
2022/02/03 10:19:32;;;;;;;10.30;3.00;;;;;;;;;;5068463;28;20028;-46
2022/02/03 10:22:01;;;;;;;11.50;2.53;;;;;;;;;;5064824;28;20044;-47
2022/02/03 10:24:32;;;;;;;10.13;2.30;;;;;;;;;;5074256;28;20024;-49
2022/02/03 10:26:58;;;;;;;9.15;2.50;;;;;;;;;;5073946;28;20068;-47
2022/02/03 10:29:29;;;;;;;8.63;2.50;;;;;;;;;;5068817;28;20060;-47
2022/02/03 10:31:55;;;;;;;8.70;2.50;;;;;;;;;;5073343;28;20025;-48
2022/02/03 10:34:28;;;;;;;10.07;2.60;;;;;;;;;;5058625;28;20726;-49
2022/02/03 10:43:08;;;;;;;7.32;3.15;;;;;;;;;;5067248;28;20126;-48
2022/02/03 10:45:43;;;;;;;7.68;2.33;;;;;;;;;;5058888;28;20041;-50
2022/02/03 10:48:25;;;;;;;14.02;3.28;;;;;;;;;;5062782;28;20041;-50
2022/02/03 10:51:18;;;;;;;7.05;2.97;;;;;;;;;;5064137;28;20431;-49
2022/02/03 10:54:04;;;;;;;13.60;3.33;;;;;;;;;;5062886;28;20380;-52
2022/02/03 11:05:16;;;;;;;12.18;3.67;;;;;;;;;;5037018;28;20041;-49
2022/02/03 11:07:51;;;;;;;12.98;3.05;;;;;;;;;;5062813;28;20519;-48
2022/02/03 11:12:46;;;;;;;8.27;3.42;;;;;;;;;;5064596;28;20025;-47
2022/02/03 11:15:13;;;;;;;11.05;3.47;;;;;;;;;;5068111;28;20530;-48
2022/02/03 11:17:39;;;;;;;10.30;3.95;;;;;;;;;;5065500;28;20039;-48
2022/02/03 11:20:07;;;;;;;9.23;3.28;;;;;;;;;;5067718;28;20051;-49
2022/02/03 11:22:47;;;;;;;10.55;3.55;;;;;;;;;;5059900;28;20033;-53
2022/02/03 11:25:48;;;;;;;8.60;2.72;;;;;;;;;;5066729;28;20449;-50
2022/02/03 11:44:28;;;;;;;8.55;3.30;;;;;;;;;;5069701;28;20839;-49
2022/02/03 11:47:33;;;;;;;5.40;2.92;;;;;;;;;;5061953;28;20036;-50
2022/02/03 12:00:41;;;;;;;8.40;3.22;;;;;;;;;;5062533;28;20053;-48
2022/02/03 12:03:28;;;;;;;5.85;3.42;;;;;;;;;;5055064;28;20029;-48
2022/02/03 12:18:01;;;;;;;6.35;3.00;;;;;;;;;;5067418;28;20100;-48
2022/02/03 12:21:04;;;;;;;5.30;3.00;;;;;;;;;;5068932;28;20029;-49
2022/02/03 12:23:37;;;;;;;9.93;3.47;;;;;;;;;;5067934;28;20353;-50
2022/02/03 12:26:09;;;;;;;6.72;3.10;;;;;;;;;;5060531;28;20112;-51
2022/02/03 12:28:52;;;;;;;6.00;3.03;;;;;;;;;;5062403;28;20035;-52
2022/02/03 12:39:14;;;;;;;5.63;3.15;;;;;;;;;;5061744;28;20055;-53
2022/02/03 12:41:48;;;;;;;8.15;3.45;;;;;;;;;;5068248;28;20036;-49
2022/02/03 12:44:22;;;;;;;7.82;3.97;;;;;;;;;;5068232;28;20036;-50
2022/02/03 12:46:48;;;;;;;7.38;3.72;;;;;;;;;;5064333;28;20032;-49
2022/02/03 12:49:15;;;;;;;4.63;3.38;;;;;;;;;;5064584;28;20024;-49
2022/02/03 12:51:41;;;;;;;8.35;3.50;;;;;;;;;;5069022;28;20044;-51
2022/02/03 12:54:10;;;;;;;7.32;3.40;;;;;;;;;;5066915;28;20029;-51
2022/02/03 12:56:36;;;;;;;7.90;3.78;;;;;;;;;;5065919;28;20113;-50
2022/02/03 12:59:03;;;;;;;8.63;3.65;;;;;;;;;;5061463;28;20029;-51
2022/02/03 13:01:32;;;;;;;7.30;3.78;;;;;;;;;;5054239;28;20127;-48
2022/02/03 13:04:00;;;;;;;6.78;3.60;;;;;;;;;;5064172;28;20032;-53
2022/02/03 13:06:28;;;;;;;7.72;4.20;;;;;;;;;;5067973;28;20032;-50
2022/02/03 13:09:00;;;;;;;8.75;3.78;;;;;;;;;;5062273;28;20108;-53
2022/02/03 13:11:51;;;;;;;7.82;4.10;;;;;;;;;;5070744;28;20035;-53
2022/02/03 13:14:44;;;;;;;9.38;3.80;;;;;;;;;;5061066;28;20111;-47
2022/02/03 13:17:16;;;;;;;7.30;3.10;;;;;;;;;;5066815;28;20029;-49
2022/02/03 13:19:54;;;;;;;10.52;4.00;;;;;;;;;;5071450;28;20039;-49
2022/02/03 13:25:05;;;;;;;9.23;4.00;;;;;;;;;;5072639;28;20063;-50
2022/02/03 13:27:57;;;;;;;8.80;4.30;;;;;;;;;;5072597;28;20108;-48
2022/02/03 13:30:42;;;;;;;8.20;4.18;;;;;;;;;;5067057;28;20029;-49
2022/02/03 13:33:09;;;;;;;6.22;3.78;;;;;;;;;;5073986;28;20460;-51
2022/02/03 13:35:51;;;;;;;7.25;3.90;;;;;;;;;;5073216;28;20407;-48
2022/02/03 13:39:03;;;;;;;8.88;4.68;;;;;;;;;;5073711;28;20481;-48
2022/02/03 13:41:13;;;;;;;7.90;3.70;;;;;;;;;;5056652;28;20118;-53
2022/02/03 13:43:41;;;;;;;9.73;3.95;;;;;;;;;;5075329;28;20089;-49
2022/02/03 13:46:08;;;;;;;7.82;4.10;;;;;;;;;;5075127;28;20035;-50
2022/02/03 13:48:37;;;;;;;8.45;4.15;;;;;;;;;;5075147;28;20455;-52
2022/02/03 13:51:09;;;;;;;8.25;4.35;;;;;;;;;;5072142;28;20469;-53
2022/02/03 13:53:48;;;;;;;8.80;4.28;;;;;;;;;;5065177;28;20032;-48
2022/02/03 14:15:52;;;;;;;7.47;4.30;;;;;;;;;;5070364;28;20432;-48
2022/02/03 14:28:42;;;;;;;9.38;4.72;;;;;;;;;;5071705;28;20039;-51
2022/02/03 14:31:09;;;;;;;8.90;4.40;;;;;;;;;;5066583;28;20025;-50
2022/02/03 14:33:39;;;;;;;8.95;4.75;;;;;;;;;;5064952;28;20021;-50
2022/02/03 14:36:08;;;;;;;9.07;4.68;;;;;;;;;;5066112;28;20017;-49
2022/02/03 14:38:55;;;;;;;8.05;4.78;;;;;;;;;;5065400;28;20021;-52
2022/02/03 14:41:30;;;;;;;7.45;4.57;;;;;;;;;;5066521;28;20025;-51
2022/02/03 14:43:58;;;;;;;9.82;4.07;;;;;;;;;;5070208;28;20028;-48
2022/02/03 14:46:25;;;;;;;8.70;4.95;;;;;;;;;;5066496;28;20029;-51
2022/02/03 14:48:52;;;;;;;10.32;5.10;;;;;;;;;;5072645;28;20103;-50
2022/02/03 14:51:23;;;;;;;8.35;5.03;;;;;;;;;;5071842;28;20098;-52
2022/02/03 14:54:19;;;;;;;10.77;4.32;;;;;;;;;;5067964;28;20031;-49
2022/02/03 14:59:25;;;;;;;10.10;5.30;;;;;;;;;;5069655;28;20499;-53
2022/02/03 15:01:51;;;;;;;10.07;4.30;;;;;;;;;;5066724;28;20032;-49
2022/02/03 15:04:26;;;;;;;7.75;4.20;;;;;;;;;;5069135;28;20518;-49
2022/02/03 15:06:58;;;;;;;11.10;4.97;;;;;;;;;;5068008;28;20074;-48
2022/02/03 15:12:58;;;;;;;12.40;4.35;;;;;;;;;;5069140;28;20506;-49
2022/02/03 15:15:00;;;;;;;7.45;4.70;;;;;;;;;;5064319;28;20035;-49
2022/02/03 15:17:26;;;;;;;9.93;5.20;;;;;;;;;;5073418;28;20037;-51
2022/02/03 15:19:52;;;;;;;9.52;4.55;;;;;;;;;;5072640;28;20452;-51
2022/02/03 15:22:18;;;;;;;7.95;3.78;;;;;;;;;;5072982;28;20444;-49
2022/02/03 15:24:44;;;;;;;8.73;4.60;;;;;;;;;;5064953;28;20052;-53
2022/02/03 15:27:12;;;;;;;7.15;4.40;;;;;;;;;;5071119;28;20426;-49
2022/02/03 15:29:38;;;;;;;10.93;5.13;;;;;;;;;;5070347;28;20021;-48
2022/02/03 15:32:04;;;;;;;9.35;4.40;;;;;;;;;;5070705;28;20036;-53
2022/02/03 15:34:31;;;;;;;9.85;4.63;;;;;;;;;;5072399;28;20086;-50
2022/02/03 15:37:01;;;;;;;10.32;5.25;;;;;;;;;;5071982;28;20032;-47
2022/02/03 15:39:35;;;;;;;8.55;4.53;;;;;;;;;;5063917;28;20028;-49
2022/02/03 15:42:01;;;;;;;7.53;4.30;;;;;;;;;;5066215;28;20090;-50
2022/02/03 15:44:30;;;;;;;10.35;4.70;;;;;;;;;;5065380;28;20032;-49
2022/02/03 15:47:02;;;;;;;13.07;5.05;;;;;;;;;;5065660;28;20122;-52
2022/02/03 15:49:58;;;;;;;7.82;4.05;;;;;;;;;;5055289;28;20088;-52
2022/02/03 16:01:04;;;;;;;8.35;4.80;;;;;;;;;;5070239;28;20082;-48
2022/02/03 16:03:34;;;;;;;8.82;4.30;;;;;;;;;;5071949;28;20033;-51
2022/02/03 16:17:04;;;;;;;9.32;4.75;;;;;;;;;;5070225;28;20166;-53
2022/02/03 16:22:34;;;;;;;10.73;5.40;;;;;;;;;;5047119;28;20436;-52
2022/02/03 16:52:41;;;;;;;13.43;5.68;;;;;;;;;;5067896;28;20183;-51
2022/02/03 16:55:12;;;;;;;12.55;5.97;;;;;;;;;;5060929;28;20033;-52
2022/02/03 16:57:38;;;;;;;13.02;6.55;;;;;;;;;;5063067;28;20020;-49
2022/02/03 17:00:09;;;;;;;14.43;7.25;;;;;;;;;;5075846;28;20056;-52
2022/02/03 17:02:35;;;;;;;14.40;7.97;;;;;;;;;;5070212;28;20028;-52
2022/02/03 17:05:01;;;;;;;11.95;6.20;;;;;;;;;;5070406;28;20024;-49
2022/02/03 17:07:27;;;;;;;16.38;7.60;;;;;;;;;;5077928;28;20040;-54
2022/02/03 17:09:55;;;;;;;10.52;7.03;;;;;;;;;;5076044;28;20027;-49
2022/02/03 17:12:21;;;;;;;15.55;8.90;;;;;;;;;;5067764;28;20384;-50
2022/02/03 17:14:47;;;;;;;12.50;6.85;;;;;;;;;;5072943;28;20025;-48
2022/02/03 17:17:13;;;;;;;12.25;6.88;;;;;;;;;;5074161;28;20044;-51
2022/02/03 17:19:39;;;;;;;16.00;7.63;;;;;;;;;;5073824;28;20033;-48
2022/02/03 17:22:07;;;;;;;13.48;6.93;;;;;;;;;;5077293;28;20173;-50
2022/02/03 17:24:35;;;;;;;13.00;6.43;;;;;;;;;;5077585;28;20025;-49
2022/02/03 17:27:09;;;;;;;12.95;6.22;;;;;;;;;;5077561;28;20028;-51
2022/02/03 17:29:52;;;;;;;14.15;6.70;;;;;;;;;;5077600;28;20345;-48
2022/02/03 18:03:03;;;;;;;17.83;8.60;;;;;;;;;;5064623;28;20527;-48
2022/02/03 18:06:12;;;;;;;13.90;6.50;;;;;;;;;;5068595;28;20085;-51
2022/02/03 18:08:33;;;;;;;11.32;6.50;;;;;;;;;;5062870;28;20041;-48
2022/02/03 18:19:39;;;;;;;14.63;7.03;;;;;;;;;;5073499;28;20091;-53
2022/02/03 18:45:51;;;;;;;16.90;7.55;;;;;;;;;;5054814;28;20044;-52
2022/02/03 18:46:47;;;;;;;12.70;6.75;;;;;;;;;;5064352;28;20168;-51
2022/02/03 18:51:40;;;;;;;14.88;6.57;;;;;;;;;;5064540;28;20035;-54
2022/02/03 18:57:16;;;;;;;15.23;7.57;;;;;;;;;;5062848;28;20031;-53
2022/02/03 19:00:08;;;;;;;15.35;7.50;;;;;;;;;;5063208;28;20103;-49
2022/02/03 19:03:03;;;;;;;15.30;7.60;;;;;;;;;;5058397;28;20025;-49
2022/02/03 19:21:11;;;;;;;13.18;7.13;;;;;;;;;;5068301;28;20372;-48
2022/02/03 20:01:25;;;;;;;14.60;7.10;;;;;;;;;;5064281;28;20036;-51
2022/02/03 20:04:20;;;;;;;12.13;6.93;;;;;;;;;;5061512;28;20416;-49
2022/02/03 20:06:47;;;;;;;15.93;7.00;;;;;;;;;;5071663;28;20032;-48
2022/02/03 20:09:44;;;;;;;11.65;6.57;;;;;;;;;;5068915;28;20020;-48
2022/02/03 20:12:10;;;;;;;14.25;7.68;;;;;;;;;;5065345;28;20037;-52
2022/02/03 20:14:36;;;;;;;13.63;6.95;;;;;;;;;;5070042;28;20028;-48
2022/02/03 20:17:02;;;;;;;14.07;7.47;;;;;;;;;;5063893;28;20109;-49
2022/02/03 20:19:28;;;;;;;16.83;8.15;;;;;;;;;;5071515;28;20534;-50
2022/02/03 20:21:54;;;;;;;12.48;6.95;;;;;;;;;;5079421;28;20025;-50
2022/02/03 20:24:24;;;;;;;15.48;7.72;;;;;;;;;;5066474;28;20389;-50
2022/02/03 20:26:50;;;;;;;12.70;6.63;;;;;;;;;;5062211;28;20120;-54
2022/02/03 20:29:16;;;;;;;12.98;7.82;;;;;;;;;;5069850;28;20032;-51
2022/02/03 20:31:42;;;;;;;14.15;7.15;;;;;;;;;;5069324;28;20039;-52
2022/02/03 20:34:08;;;;;;;13.23;6.78;;;;;;;;;;5072061;28;20103;-49
2022/02/03 20:36:34;;;;;;;12.43;6.35;;;;;;;;;;5061878;28;20515;-51
2022/02/03 20:39:00;;;;;;;12.77;6.63;;;;;;;;;;5056416;28;20028;-53
2022/02/03 20:41:28;;;;;;;14.75;6.80;;;;;;;;;;5060874;28;20100;-51
2022/02/03 20:43:53;;;;;;;12.80;6.35;;;;;;;;;;5059155;28;20020;-52
2022/02/03 20:46:22;;;;;;;16.30;7.10;;;;;;;;;;5075891;28;20036;-52
2022/02/03 20:48:49;;;;;;;12.52;7.28;;;;;;;;;;5068685;28;20036;-51
2022/02/03 20:51:19;;;;;;;16.58;7.65;;;;;;;;;;5073625;28;20041;-51
2022/02/03 20:53:46;;;;;;;14.82;7.10;;;;;;;;;;5070988;28;20424;-49
2022/02/03 20:56:12;;;;;;;17.42;7.82;;;;;;;;;;5064317;28;20020;-51
2022/02/03 20:58:39;;;;;;;15.45;7.25;;;;;;;;;;5071721;28;20036;-48
2022/02/03 21:01:13;;;;;;;14.60;6.85;;;;;;;;;;5067283;28;20106;-52
2022/02/03 21:03:42;;;;;;;15.80;7.47;;;;;;;;;;5068883;28;20036;-52
2022/02/03 21:06:12;;;;;;;15.63;7.75;;;;;;;;;;5074746;28;20028;-54
2022/02/03 21:08:41;;;;;;;14.57;7.10;;;;;;;;;;5073785;28;20393;-54
2022/02/03 21:11:07;;;;;;;14.40;6.88;;;;;;;;;;5070243;28;20492;-51
2022/02/03 21:13:33;;;;;;;16.08;7.32;;;;;;;;;;5067117;28;20059;-54
2022/02/03 21:16:01;;;;;;;15.00;7.20;;;;;;;;;;5069933;28;20021;-51
2022/02/03 21:18:30;;;;;;;14.48;6.35;;;;;;;;;;5068878;28;20032;-54
2022/02/03 21:20:57;;;;;;;11.52;6.40;;;;;;;;;;5066960;28;20089;-52
2022/02/03 21:23:23;;;;;;;12.75;6.63;;;;;;;;;;5068416;28;20037;-51
2022/02/03 21:25:54;;;;;;;16.73;7.50;;;;;;;;;;5066924;28;20032;-50
2022/02/03 21:28:24;;;;;;;13.57;7.25;;;;;;;;;;5071440;28;20111;-49
2022/02/03 21:30:50;;;;;;;13.57;7.18;;;;;;;;;;5068279;28;20028;-53
2022/02/03 21:33:23;;;;;;;14.18;6.82;;;;;;;;;;5075420;28;20054;-50
2022/02/03 21:35:49;;;;;;;10.95;6.13;;;;;;;;;;5071542;28;20067;-54
2022/02/03 21:38:16;;;;;;;9.20;5.40;;;;;;;;;;5071361;28;20033;-50
2022/02/03 21:40:42;;;;;;;11.25;5.75;;;;;;;;;;5074564;28;20038;-52
2022/02/03 21:43:08;;;;;;;12.55;5.43;;;;;;;;;;5071703;28;20078;-53
2022/02/03 21:45:35;;;;;;;10.30;5.55;;;;;;;;;;5072638;28;20024;-51
2022/02/03 21:48:01;;;;;;;9.20;4.75;;;;;;;;;;5074858;28;20039;-50
2022/02/03 21:50:32;;;;;;;9.02;4.80;;;;;;;;;;5071969;28;20097;-51
2022/02/03 21:52:59;;;;;;;11.52;5.40;;;;;;;;;;5071664;28;20041;-48
2022/02/03 21:55:28;;;;;;;8.25;4.85;;;;;;;;;;5065667;28;20380;-51
2022/02/03 21:57:55;;;;;;;9.25;5.07;;;;;;;;;;5086267;28;20040;-53
2022/02/03 22:00:21;;;;;;;12.48;5.35;;;;;;;;;;5074531;28;20445;-52
2022/02/03 22:02:48;;;;;;;10.02;5.47;;;;;;;;;;5069052;28;20449;-54
2022/02/03 22:05:14;;;;;;;9.68;5.15;;;;;;;;;;5067136;28;20028;-50
2022/02/03 22:07:41;;;;;;;8.82;5.43;;;;;;;;;;5074364;28;20028;-52
2022/02/03 22:10:11;;;;;;;8.70;4.70;;;;;;;;;;5068471;28;20029;-52
2022/02/03 22:12:37;;;;;;;12.43;5.78;;;;;;;;;;5073552;28;20020;-53
2022/02/03 22:15:03;;;;;;;12.73;6.00;;;;;;;;;;5074614;28;20036;-52
2022/02/03 22:17:29;;;;;;;11.95;5.95;;;;;;;;;;5074054;28;20028;-51
2022/02/03 22:19:56;;;;;;;11.80;5.53;;;;;;;;;;5058628;28;20025;-54
2022/02/03 22:22:50;;;;;;;8.57;5.03;;;;;;;;;;5061673;28;20457;-50
2022/02/03 22:25:43;;;;;;;11.63;5.25;;;;;;;;;;5062809;28;20044;-51
2022/02/03 22:28:28;;;;;;;10.60;5.63;;;;;;;;;;5062190;28;20032;-48
2022/02/03 22:42:25;;;;;;;11.07;5.45;;;;;;;;;;5069580;28;20036;-52
2022/02/03 22:44:30;;;;;;;10.25;5.78;;;;;;;;;;5069538;28;20473;-49
2022/02/03 22:49:40;;;;;;;9.27;5.00;;;;;;;;;;5058319;28;20036;-49
2022/02/03 22:52:07;;;;;;;11.10;5.80;;;;;;;;;;5063648;28;20048;-51
2022/02/03 22:54:34;;;;;;;12.32;5.70;;;;;;;;;;5068025;28;20062;-51
2022/02/03 22:57:00;;;;;;;10.95;5.72;;;;;;;;;;5072469;28;20121;-52
2022/02/03 23:01:53;;;;;;;10.13;5.50;;;;;;;;;;5068745;28;20035;-51
2022/02/03 23:04:19;;;;;;;12.90;6.78;;;;;;;;;;5069989;28;20119;-48
2022/02/03 23:06:45;;;;;;;13.07;6.35;;;;;;;;;;5070318;28;20110;-48
2022/02/03 23:09:29;;;;;;;13.10;6.93;;;;;;;;;;5072316;28;20033;-48
2022/02/03 23:12:54;;;;;;;14.95;6.97;;;;;;;;;;5067035;28;20024;-52
2022/02/03 23:22:43;;;;;;;16.90;6.95;;;;;;;;;;5064223;28;20484;-52
2022/02/03 23:25:13;;;;;;;11.70;6.28;;;;;;;;;;5059787;28;20028;-50
2022/02/03 23:30:09;;;;;;;15.50;7.85;;;;;;;;;;5063984;28;20036;-48
2022/02/03 23:32:35;;;;;;;14.00;6.38;;;;;;;;;;5060890;28;20575;-49
2022/02/03 23:35:17;;;;;;;14.18;6.55;;;;;;;;;;5078370;28;20020;-51
2022/02/03 23:37:46;;;;;;;16.52;7.10;;;;;;;;;;5072782;28;20032;-52
2022/02/03 23:40:27;;;;;;;12.88;6.40;;;;;;;;;;5078166;28;20154;-52
2022/02/03 23:49:04;;;;;;;17.40;7.38;;;;;;;;;;5072799;28;20102;-53
2022/02/03 23:51:48;;;;;;;15.13;7.32;;;;;;;;;;5073150;28;20047;-52
